Time;durP1;ratioP1;P1;durP2;ratioP2;P2;SDS_P1;SDS_P2;PMS_P1;PMS_P2;Temp;Humidity;BMP_temperature;BMP_pressure;BME280_temperature;BME280_humidity;BME280_pressure;Samples;Min_cycle;Max_cycle;Signal;HPM_P1;HPM_P2
2023/03/17 00:05:26;;;;;;;4.20;2.30;;;;;;;4.09;100.00;97328.66;22063187;27;20024;-55
2023/03/17 00:15:29;;;;;;;4.97;1.70;;;;;;;3.92;100.00;97317.87;22063020;27;20421;-58
2023/03/17 00:25:33;;;;;;;4.03;2.00;;;;;;;3.64;100.00;97301.50;22062835;27;20405;-55
2023/03/17 00:35:37;;;;;;;3.33;2.20;;;;;;;3.42;100.00;97309.31;22062894;27;20033;-55
2023/03/17 00:45:40;;;;;;;3.30;2.10;;;;;;;3.65;100.00;97308.50;22062468;27;20468;-57
2023/03/17 00:55:44;;;;;;;3.90;2.20;;;;;;;3.92;100.00;97304.50;22062565;27;20078;-58
2023/03/17 01:05:48;;;;;;;4.30;2.07;;;;;;;4.24;100.00;97307.56;22062177;27;20415;-57
2023/03/17 01:15:51;;;;;;;4.13;2.13;;;;;;;4.18;100.00;97287.09;22062263;27;20021;-55
2023/03/17 01:25:55;;;;;;;3.97;2.20;;;;;;;4.02;100.00;97289.47;22061510;27;20100;-57
2023/03/17 01:35:57;;;;;;;4.77;2.10;;;;;;;3.88;100.00;97288.13;22061915;27;20037;-57
2023/03/17 01:46:12;;;;;;;3.17;2.07;;;;;;;3.81;100.00;97272.19;22061749;27;20479;-56
2023/03/17 01:56:16;;;;;;;3.70;2.03;;;;;;;3.76;100.00;97263.28;22061731;27;20045;-57
2023/03/17 02:06:19;;;;;;;3.90;2.30;;;;;;;3.53;100.00;97246.22;22061067;27;20031;-57
2023/03/17 02:16:22;;;;;;;4.73;2.57;;;;;;;3.24;100.00;97239.97;22061965;27;20025;-57
2023/03/17 02:26:24;;;;;;;4.63;2.57;;;;;;;2.94;100.00;97244.38;22061084;27;20026;-56
2023/03/17 02:36:27;;;;;;;3.23;2.37;;;;;;;2.74;100.00;97251.88;22041619;27;20313;-57
2023/03/17 02:46:30;;;;;;;3.47;2.13;;;;;;;2.55;100.00;97243.97;22065994;27;20022;-57
2023/03/17 02:56:32;;;;;;;3.97;2.30;;;;;;;2.31;100.00;97254.56;22065350;27;20361;-57
2023/03/17 03:06:36;;;;;;;4.93;2.43;;;;;;;2.10;100.00;97252.41;22045424;27;20321;-57
2023/03/17 03:16:39;;;;;;;3.97;2.40;;;;;;;1.87;100.00;97251.25;22064522;27;20029;-57
2023/03/17 03:26:42;;;;;;;2.80;1.87;;;;;;;1.66;100.00;97226.72;21971648;27;20029;-56
2023/03/17 03:36:45;;;;;;;5.30;2.03;;;;;;;1.54;100.00;97231.16;21973421;27;20067;-56
2023/03/17 03:46:47;;;;;;;4.53;2.40;;;;;;;1.35;100.00;97231.12;21972972;27;20041;-57
2023/03/17 03:56:56;;;;;;;5.47;2.30;;;;;;;1.23;100.00;97243.56;21972300;27;20065;-57
2023/03/17 04:07:13;;;;;;;2.53;1.67;;;;;;;1.12;100.00;97239.78;21970707;27;20454;-56
2023/03/17 04:17:18;;;;;;;3.20;1.50;;;;;;;0.97;100.00;97224.16;21972404;27;20040;-56
2023/03/17 04:27:20;;;;;;;2.97;1.43;;;;;;;0.81;100.00;97233.53;21972133;27;20039;-56
2023/03/17 04:37:23;;;;;;;3.67;2.00;;;;;;;0.65;100.00;97234.87;21970269;27;20087;-57
2023/03/17 04:47:26;;;;;;;3.10;1.73;;;;;;;0.55;100.00;97242.53;21970742;27;20485;-54
2023/03/17 04:57:28;;;;;;;3.60;2.07;;;;;;;0.50;100.00;97245.00;21971550;27;20021;-57
2023/03/17 05:07:30;;;;;;;3.87;2.37;;;;;;;0.44;100.00;97241.37;21970200;27;20021;-57
2023/03/17 05:17:35;;;;;;;4.67;2.33;;;;;;;0.37;100.00;97242.44;21972590;27;20025;-56
2023/03/17 05:27:38;;;;;;;3.63;1.90;;;;;;;0.35;100.00;97240.00;22042189;27;20036;-56
2023/03/17 05:37:40;;;;;;;2.90;1.80;;;;;;;0.29;100.00;97228.38;22061653;27;20036;-56
2023/03/17 05:47:43;;;;;;;2.63;1.77;;;;;;;0.22;100.00;97230.28;22061525;27;20025;-56
2023/03/17 05:57:46;;;;;;;2.83;1.57;;;;;;;0.23;100.00;97237.19;22061758;27;20044;-56
2023/03/17 06:07:49;;;;;;;3.23;1.83;;;;;;;0.29;100.00;97254.97;22061284;27;20060;-57
2023/03/17 06:17:58;;;;;;;2.57;1.47;;;;;;;0.46;100.00;97262.44;22061257;27;20036;-57
2023/03/17 06:28:02;;;;;;;3.00;1.43;;;;;;;0.72;100.00;97253.44;22061062;27;20078;-57
2023/03/17 06:38:05;;;;;;;4.25;1.70;;;;;;;1.10;100.00;97257.03;22060967;26;20033;-56
2023/03/17 06:48:08;;;;;;;2.00;1.30;;;;;;;1.46;100.00;97266.09;22060753;27;20039;-57
2023/03/17 06:58:12;;;;;;;3.67;1.60;;;;;;;1.92;100.00;97283.41;22060766;27;20025;-57
2023/03/17 07:08:14;;;;;;;2.17;1.33;;;;;;;2.50;100.00;97289.22;22060448;27;20036;-57
2023/03/17 07:18:17;;;;;;;2.50;1.10;;;;;;;3.19;100.00;97286.06;22059849;27;20037;-58
2023/03/17 07:28:20;;;;;;;1.57;0.80;;;;;;;3.85;100.00;97289.41;22042613;27;20025;-57
2023/03/17 07:38:23;;;;;;;2.13;1.40;;;;;;;4.23;100.00;97288.03;22044015;27;20033;-55
2023/03/17 07:48:25;;;;;;;2.77;1.80;;;;;;;4.66;100.00;97277.81;22063783;27;20016;-57
2023/03/17 07:58:28;;;;;;;3.50;2.43;;;;;;;5.25;100.00;97284.66;22043924;27;20406;-55
2023/03/17 08:08:31;;;;;;;4.07;2.50;;;;;;;6.01;100.00;97291.34;22063062;27;20090;-57
2023/03/17 08:18:34;;;;;;;5.63;3.30;;;;;;;6.84;100.00;97296.53;22062790;27;20068;-57
2023/03/17 08:28:37;;;;;;;7.83;3.60;;;;;;;7.62;100.00;97303.31;22062855;27;20059;-57
2023/03/17 08:38:41;;;;;;;5.30;3.50;;;;;;;8.27;96.02;97303.87;22062522;27;20101;-58
2023/03/17 08:48:46;;;;;;;6.57;3.07;;;;;;;8.96;93.02;97298.38;22042929;27;20021;-58
2023/03/17 08:58:50;;;;;;;4.77;3.10;;;;;;;9.78;85.15;97282.13;22062639;27;20068;-58
2023/03/17 09:08:56;;;;;;;4.30;2.00;;;;;;;10.23;77.51;97281.44;22062243;27;20349;-58
2023/03/17 09:18:59;;;;;;;4.30;2.00;;;;;;;10.54;78.26;97278.59;22042100;27;20037;-57
2023/03/17 09:29:02;;;;;;;3.33;2.20;;;;;;;10.93;73.48;97267.00;22042327;27;20342;-58
2023/03/17 09:39:05;;;;;;;3.37;2.70;;;;;;;11.26;71.19;97261.84;22061954;27;20021;-57
2023/03/17 09:49:12;;;;;;;5.90;3.20;;;;;;;11.50;68.39;97270.81;22061345;27;20097;-57
2023/03/17 09:59:37;;;;;;;5.62;2.97;;;;;;;11.98;67.81;97250.31;22042204;27;20302;-57
2023/03/17 10:09:52;;;;;;;5.20;2.72;;;;;;;12.65;62.92;97235.88;22041896;27;20072;-57
2023/03/17 10:20:03;;;;;;;7.32;2.50;;;;;;;13.15;61.64;97238.84;22061500;27;20026;-57
2023/03/17 10:30:21;;;;;;;5.37;3.00;;;;;;;13.64;61.07;97225.03;22061032;27;20024;-57
2023/03/17 10:40:29;;;;;;;4.72;2.70;;;;;;;13.97;59.28;97211.31;22041267;27;20032;-57
2023/03/17 10:50:35;;;;;;;4.10;2.58;;;;;;;14.18;57.87;97204.37;22060908;27;20487;-58
2023/03/17 11:00:49;;;;;;;7.78;2.67;;;;;;;14.69;56.99;97204.31;22042958;27;20032;-58
2023/03/17 11:10:55;;;;;;;7.10;2.90;;;;;;;14.88;54.31;97217.75;22045163;26;20047;-57
2023/03/17 11:21:09;;;;;;;5.18;2.58;;;;;;;15.81;53.98;97210.75;22063875;27;20041;-57
2023/03/17 11:31:42;;;;;;;6.05;3.30;;;;;;;16.93;52.29;97191.34;22063890;27;20470;-58
2023/03/17 11:42:05;;;;;;;6.00;2.50;;;;;;;17.52;50.33;97187.97;22064257;27;20038;-58
2023/03/17 11:52:45;;;;;;;3.78;2.55;;;;;;;18.06;49.01;97181.97;22043294;27;20421;-57
2023/03/17 12:02:57;;;;;;;4.20;2.45;;;;;;;18.32;46.73;97175.50;22063160;26;20044;-58
2023/03/17 12:13:22;;;;;;;6.45;2.87;;;;;;;18.79;47.83;97152.59;22063214;27;20031;-58
2023/03/17 12:23:48;;;;;;;5.05;2.53;;;;;;;19.58;46.81;97152.56;22062984;27;20043;-57
2023/03/17 12:34:08;;;;;;;6.12;2.17;;;;;;;19.17;44.39;97159.81;22062992;27;20066;-56
2023/03/17 12:44:41;;;;;;;3.08;1.80;;;;;;;18.65;45.74;97176.72;22062990;27;20029;-55
2023/03/17 12:54:47;;;;;;;5.10;3.08;;;;;;;18.88;46.91;97167.00;22062226;26;20032;-55
2023/03/17 13:04:56;;;;;;;4.97;3.20;;;;;;;19.68;43.21;97177.94;22062346;27;20352;-55
2023/03/17 13:14:59;;;;;;;5.45;2.70;;;;;;;20.11;42.84;97182.06;22062451;27;20030;-55
2023/03/17 13:25:35;;;;;;;4.22;1.90;;;;;;;20.58;39.19;97170.56;22041222;27;20043;-56
2023/03/17 13:35:53;;;;;;;4.07;1.77;;;;;;;20.31;40.62;97166.63;22062027;27;20037;-55
2023/03/17 13:46:39;;;;;;;1.90;1.25;;;;;;;19.74;39.77;97165.59;22041664;27;20021;-55
2023/03/17 13:56:42;;;;;;;2.12;1.05;;;;;;;19.79;41.89;97165.37;22061561;27;20344;-55
2023/03/17 14:06:49;;;;;;;3.22;1.30;;;;;;;19.73;41.21;97169.47;22061144;27;20428;-56
2023/03/17 14:16:58;;;;;;;1.67;0.93;;;;;;;19.82;41.31;97161.97;22060923;27;20056;-55
2023/03/17 14:27:13;;;;;;;1.48;0.60;;;;;;;19.52;38.40;97155.88;22060840;27;20022;-56
2023/03/17 14:37:16;;;;;;;2.50;0.93;;;;;;;19.47;41.01;97165.94;22063464;27;20048;-55
2023/03/17 14:47:22;;;;;;;;;;;;;;;19.60;38.51;97160.47;22064955;26;20345;-55
2023/03/17 14:57:30;;;;;;;1.45;0.85;;;;;;;19.40;39.63;97149.22;22046080;27;19955;-55
2023/03/17 15:07:38;;;;;;;2.20;1.00;;;;;;;19.39;39.68;97155.03;22044833;27;20028;-55
2023/03/17 15:17:41;;;;;;;5.05;1.00;;;;;;;19.36;41.64;97148.31;22064020;27;20432;-56
2023/03/17 15:27:44;;;;;;;2.50;0.83;;;;;;;18.87;41.00;97157.19;22044673;27;20495;-55
2023/03/17 15:37:47;;;;;;;2.95;1.10;;;;;;;18.52;42.36;97148.47;22063553;26;20033;-55
2023/03/17 15:47:50;;;;;;;1.53;0.53;;;;;;;18.02;41.39;97131.78;22063546;27;20068;-55
2023/03/17 15:57:53;;;;;;;2.67;1.47;;;;;;;17.73;43.88;97125.19;22063353;27;20029;-55
2023/03/17 16:08:26;;;;;;;5.43;2.28;;;;;;;17.43;43.81;97135.28;22063476;27;20044;-55
2023/03/17 16:18:38;;;;;;;2.37;1.60;;;;;;;17.04;46.47;97118.06;21690463;27;20076;-55
2023/03/17 16:28:41;;;;;;;3.72;2.33;;;;;;;16.63;49.37;97122.13;21690124;27;20030;-55
2023/03/17 16:38:45;;;;;;;4.45;2.35;;;;;;;16.18;51.25;97118.59;21689694;27;20027;-55
2023/03/17 16:48:49;;;;;;;2.37;1.37;;;;;;;15.73;52.96;97124.28;21771953;27;20093;-55
2023/03/17 16:58:52;;;;;;;2.58;1.10;;;;;;;15.14;55.61;97130.78;22042809;27;20025;-55
2023/03/17 17:08:55;;;;;;;3.45;1.80;;;;;;;14.56;58.97;97144.19;22062948;27;20021;-55
2023/03/17 17:18:59;;;;;;;3.95;2.50;;;;;;;14.03;61.90;97147.56;22042286;27;20065;-53
2023/03/17 17:29:02;;;;;;;;;;;;;;;13.45;67.55;97149.84;22023309;26;20025;-54
2023/03/17 17:39:05;;;;;;;3.00;1.70;;;;;;;12.84;75.27;97159.88;22042261;27;19948;-56
2023/03/17 17:49:10;;;;;;;2.08;1.30;;;;;;;12.26;82.43;97171.91;22061958;27;20025;-56
2023/03/17 17:59:13;;;;;;;8.57;3.27;;;;;;;11.74;86.07;97183.38;22041793;27;20443;-57
2023/03/17 18:09:17;;;;;;;8.90;5.67;;;;;;;11.29;91.96;97191.72;22041111;27;20041;-57
2023/03/17 18:19:20;;;;;;;6.10;3.63;;;;;;;10.91;99.31;97188.00;22060882;27;20352;-56
2023/03/17 18:29:22;;;;;;;3.90;2.30;;;;;;;10.56;100.00;97189.94;22061130;27;20420;-55
2023/03/17 18:39:25;;;;;;;4.63;1.90;;;;;;;10.26;100.00;97200.59;22060891;27;20024;-56
2023/03/17 18:49:29;;;;;;;7.60;2.70;;;;;;;9.96;100.00;97190.78;22060883;27;20044;-57
2023/03/17 18:59:32;;;;;;;4.23;1.80;;;;;;;9.70;100.00;97203.59;22060747;27;20408;-57
2023/03/17 19:09:34;;;;;;;4.93;2.40;;;;;;;9.48;100.00;97213.66;22060742;27;20021;-57
2023/03/17 19:19:37;;;;;;;3.57;1.60;;;;;;;9.30;100.00;97220.44;22041467;27;20045;-56
2023/03/17 19:29:40;;;;;;;3.50;1.70;;;;;;;9.05;100.00;97209.69;22064111;27;20021;-57
2023/03/17 19:39:43;;;;;;;3.77;1.50;;;;;;;8.84;100.00;97217.78;22064048;27;20037;-57
2023/03/17 19:49:46;;;;;;;2.33;1.57;;;;;;;8.68;100.00;97229.63;22064089;27;20435;-57
2023/03/17 19:59:49;;;;;;;2.20;1.80;;;;;;;8.51;100.00;97232.56;22044248;27;20089;-57
2023/03/17 20:09:52;;;;;;;3.57;1.93;;;;;;;8.31;100.00;97236.81;22043538;27;20058;-57
2023/03/17 20:19:56;;;;;;;2.23;1.70;;;;;;;8.11;100.00;97235.69;22062932;27;20032;-56
2023/03/17 20:29:58;;;;;;;9.17;3.40;;;;;;;7.90;100.00;97245.56;22062859;27;20447;-57
2023/03/17 20:40:04;;;;;;;3.90;2.67;;;;;;;7.73;100.00;97261.09;22025143;27;20043;-56
2023/03/17 20:50:08;;;;;;;5.50;2.73;;;;;;;7.60;100.00;97265.06;22062713;27;20038;-57
2023/03/17 21:00:15;;;;;;;4.87;3.03;;;;;;;7.44;100.00;97278.44;22062794;27;20051;-56
2023/03/17 21:10:18;;;;;;;7.80;4.10;;;;;;;7.33;100.00;97282.13;22042509;27;20072;-56
2023/03/17 21:20:24;;;;;;;6.87;4.00;;;;;;;7.21;100.00;97287.69;22062503;27;20050;-55
2023/03/17 21:30:27;;;;;;;5.07;3.00;;;;;;;7.03;100.00;97304.19;22062277;27;20037;-57
2023/03/17 21:40:30;;;;;;;4.83;2.63;;;;;;;6.95;100.00;97311.66;22042281;27;20029;-56
2023/03/17 21:50:34;;;;;;;6.97;3.73;;;;;;;6.77;100.00;97307.47;22041608;27;20025;-55
2023/03/17 22:00:37;;;;;;;7.27;3.63;;;;;;;6.66;100.00;97316.50;22042157;27;20039;-55
2023/03/17 22:10:47;;;;;;;4.77;2.90;;;;;;;6.63;100.00;97319.69;22062108;27;20398;-56
2023/03/17 22:20:54;;;;;;;3.80;2.10;;;;;;;6.49;100.00;97330.00;22061306;27;20350;-57
2023/03/17 22:30:57;;;;;;;3.73;1.97;;;;;;;6.36;100.00;97320.47;22061224;27;20029;-56
2023/03/17 22:41:02;;;;;;;5.37;2.40;;;;;;;6.28;100.00;97335.16;22041449;27;20047;-58
2023/03/17 22:51:11;;;;;;;5.70;2.40;;;;;;;6.23;100.00;97339.66;22060882;27;20117;-57
2023/03/17 23:01:15;;;;;;;6.63;1.90;;;;;;;6.10;100.00;97349.69;22065076;26;20086;-57
2023/03/17 23:11:24;;;;;;;4.65;2.12;;;;;;;6.05;100.00;97352.31;22065031;27;20021;-57
2023/03/17 23:21:32;;;;;;;6.10;1.93;;;;;;;5.83;100.00;97354.13;22064991;27;20043;-55
2023/03/17 23:31:35;;;;;;;4.87;2.27;;;;;;;5.71;100.00;97360.38;22064796;27;20044;-57
2023/03/17 23:41:38;;;;;;;4.37;2.00;;;;;;;5.62;100.00;97369.94;22064148;27;20062;-56
2023/03/17 23:51:41;;;;;;;3.00;2.10;;;;;;;5.52;100.00;97369.75;22044095;27;20033;-57
